Time;durP1;ratioP1;P1;durP2;ratioP2;P2;SDS_P1;SDS_P2;PMS_P1;PMS_P2;Temp;Humidity;BMP_temperature;BMP_pressure;BME280_temperature;BME280_humidity;BME280_pressure;Samples;Min_cycle;Max_cycle;Signal;HPM_P1;HPM_P2
2021/10/16 00:01:20;;;;;;;7.50;5.83;;;9.10;81.80;;;;;;5015134;28;20448;-45
2021/10/16 00:03:47;;;;;;;13.57;6.60;;;9.10;81.80;;;;;;5011317;28;20996;-44
2021/10/16 00:06:15;;;;;;;6.93;6.33;;;9.00;81.80;;;;;;4997301;28;20460;-44
2021/10/16 00:08:43;;;;;;;8.60;6.53;;;9.00;82.10;;;;;;5012521;28;20480;-44
2021/10/16 00:11:10;;;;;;;7.10;6.40;;;9.00;81.80;;;;;;5012388;28;20825;-44
2021/10/16 00:13:37;;;;;;;7.57;6.57;;;9.00;81.80;;;;;;5010829;28;20468;-43
2021/10/16 00:16:04;;;;;;;6.27;5.50;;;8.90;81.90;;;;;;5013309;28;20463;-44
2021/10/16 00:18:34;;;;;;;7.73;6.27;;;8.90;82.00;;;;;;5014374;28;20490;-44
2021/10/16 00:21:02;;;;;;;7.37;6.20;;;8.90;82.00;;;;;;5013021;28;20452;-44
2021/10/16 00:23:30;;;;;;;8.07;6.60;;;8.90;81.80;;;;;;5013497;28;20460;-44
2021/10/16 00:25:57;;;;;;;7.10;6.43;;;8.90;81.80;;;;;;5012872;28;20464;-44
2021/10/16 00:28:24;;;;;;;8.30;6.40;;;8.80;81.90;;;;;;5012524;28;20485;-43
2021/10/16 00:30:51;;;;;;;7.57;5.50;;;8.80;82.00;;;;;;5013903;28;20451;-43
2021/10/16 00:33:18;;;;;;;7.27;6.57;;;8.80;82.00;;;;;;5012580;28;20509;-43
2021/10/16 00:35:46;;;;;;;7.53;5.43;;;8.80;81.90;;;;;;5011469;28;20937;-43
2021/10/16 00:38:13;;;;;;;12.50;6.03;;;8.70;81.90;;;;;;5013175;28;20460;-43
2021/10/16 00:40:39;;;;;;;6.87;6.03;;;8.70;81.80;;;;;;5012426;28;20456;-44
2021/10/16 00:43:06;;;;;;;9.43;6.17;;;8.70;81.80;;;;;;5012420;28;20849;-43
2021/10/16 00:45:33;;;;;;;6.93;6.13;;;8.60;81.90;;;;;;5012245;28;20470;-45
2021/10/16 00:48:00;;;;;;;6.63;5.30;;;8.60;82.00;;;;;;5012400;28;20491;-44
2021/10/16 00:50:27;;;;;;;7.60;5.87;;;8.60;82.00;;;;;;5011787;28;20980;-44
2021/10/16 00:52:54;;;;;;;5.70;5.10;;;8.60;82.00;;;;;;5010132;28;20476;-44
2021/10/16 00:55:22;;;;;;;9.07;5.77;;;8.50;82.00;;;;;;5008708;28;20828;-44
2021/10/16 00:57:50;;;;;;;7.10;5.57;;;8.50;82.00;;;;;;5011745;28;20475;-44
2021/10/16 01:00:17;;;;;;;10.43;7.37;;;8.50;81.70;;;;;;5011744;28;20670;-44
2021/10/16 01:02:44;;;;;;;37.13;22.23;;;8.40;81.60;;;;;;5011285;28;20464;-42
2021/10/16 01:05:12;;;;;;;23.67;14.70;;;8.40;81.40;;;;;;5011301;28;20912;-44
2021/10/16 01:07:40;;;;;;;22.90;12.90;;;8.40;81.30;;;;;;5012568;28;20490;-44
2021/10/16 01:10:09;;;;;;;12.30;10.57;;;8.40;81.40;;;;;;5011396;28;20456;-44
2021/10/16 01:12:37;;;;;;;12.53;9.77;;;8.30;81.30;;;;;;4990011;28;20456;-44
2021/10/16 01:15:07;;;;;;;11.33;8.10;;;8.30;81.30;;;;;;5011800;28;20520;-45
2021/10/16 01:17:36;;;;;;;8.17;7.33;;;8.30;81.50;;;;;;5011763;28;20563;-44
2021/10/16 01:20:07;;;;;;;8.47;6.20;;;8.20;81.40;;;;;;5013768;28;20456;-45
2021/10/16 01:22:37;;;;;;;6.50;5.53;;;8.20;81.30;;;;;;5011394;28;20456;-45
2021/10/16 01:25:13;;;;;;;6.47;5.80;;;8.20;81.40;;;;;;5010927;28;20508;-45
2021/10/16 01:27:40;;;;;;;9.40;5.63;;;8.20;81.50;;;;;;5010160;28;20490;-44
2021/10/16 01:30:11;;;;;;;7.70;6.53;;;8.20;81.80;;;;;;5011871;28;20953;-44
2021/10/16 01:32:38;;;;;;;6.43;5.40;;;8.10;81.70;;;;;;5008932;28;20464;-44
2021/10/16 01:35:07;;;;;;;7.00;6.30;;;8.10;81.70;;;;;;5011181;28;20975;-44
2021/10/16 01:37:38;;;;;;;9.40;6.23;;;8.10;81.90;;;;;;5011646;28;20467;-44
2021/10/16 01:40:05;;;;;;;6.43;5.73;;;8.00;81.90;;;;;;5008981;28;20452;-44
2021/10/16 01:42:31;;;;;;;6.63;5.70;;;8.00;82.00;;;;;;5009168;28;21045;-44
2021/10/16 01:44:59;;;;;;;7.40;6.00;;;8.00;82.10;;;;;;5012609;28;20482;-44
2021/10/16 01:47:25;;;;;;;6.20;5.60;;;8.00;81.90;;;;;;4995596;28;20526;-44
2021/10/16 01:49:55;;;;;;;7.43;5.97;;;8.00;82.00;;;;;;5012002;28;20454;-44
2021/10/16 01:52:22;;;;;;;6.47;5.87;;;8.00;81.90;;;;;;4993861;28;20448;-43
2021/10/16 01:54:49;;;;;;;7.90;5.60;;;8.00;81.90;;;;;;5008826;28;20457;-44
2021/10/16 01:57:15;;;;;;;7.27;6.60;;;8.00;82.00;;;;;;5008818;28;20468;-44
2021/10/16 01:59:42;;;;;;;7.00;6.27;;;8.00;82.10;;;;;;4994874;28;20467;-44
2021/10/16 02:02:09;;;;;;;7.53;5.80;;;8.00;82.10;;;;;;5012227;28;20448;-44
2021/10/16 02:04:36;;;;;;;7.23;5.77;;;8.00;82.00;;;;;;5011729;28;20492;-43
2021/10/16 02:07:03;;;;;;;7.40;5.80;;;8.00;82.10;;;;;;5011421;28;20673;-43
2021/10/16 02:09:29;;;;;;;7.70;5.57;;;7.90;82.00;;;;;;5008286;28;20477;-43
2021/10/16 02:11:56;;;;;;;7.27;5.63;;;7.90;82.00;;;;;;5011097;28;20844;-43
2021/10/16 02:14:23;;;;;;;6.43;5.73;;;7.90;82.00;;;;;;5009567;28;20452;-43
2021/10/16 02:16:49;;;;;;;8.93;6.03;;;7.90;82.00;;;;;;5010594;28;20483;-43
2021/10/16 02:19:19;;;;;;;6.50;5.90;;;7.90;82.00;;;;;;5010413;28;20472;-43
2021/10/16 02:21:46;;;;;;;9.10;8.10;;;7.90;81.70;;;;;;5010809;28;20456;-43
2021/10/16 02:24:12;;;;;;;8.13;6.60;;;7.90;81.80;;;;;;5009602;28;21005;-43
2021/10/16 02:26:39;;;;;;;7.63;5.60;;;7.90;81.80;;;;;;5012097;28;20468;-44
2021/10/16 02:29:06;;;;;;;6.77;6.10;;;7.90;81.70;;;;;;5012364;28;20484;-44
2021/10/16 02:31:33;;;;;;;9.10;7.70;;;7.90;81.80;;;;;;5009919;28;20450;-44
2021/10/16 02:34:00;;;;;;;9.17;7.23;;;7.80;82.00;;;;;;5009272;28;20464;-41
2021/10/16 02:36:27;;;;;;;8.97;6.80;;;7.80;82.10;;;;;;5001794;28;20548;-41
2021/10/16 02:38:53;;;;;;;9.50;6.30;;;7.90;82.00;;;;;;5005517;28;20700;-41
2021/10/16 02:41:20;;;;;;;11.33;7.27;;;7.80;81.80;;;;;;5007280;28;20467;-41
2021/10/16 02:43:47;;;;;;;6.90;6.27;;;7.80;81.90;;;;;;5006412;28;20457;-40
2021/10/16 02:46:13;;;;;;;11.27;6.80;;;7.80;82.00;;;;;;5006605;28;20467;-42
2021/10/16 02:48:40;;;;;;;7.50;6.50;;;7.80;81.90;;;;;;5006706;28;20488;-42
2021/10/16 02:51:07;;;;;;;6.83;6.13;;;7.80;81.80;;;;;;5005682;28;20463;-41
2021/10/16 02:53:35;;;;;;;8.57;5.40;;;7.80;81.80;;;;;;5008510;28;20455;-41
2021/10/16 02:56:02;;;;;;;10.20;7.10;;;7.80;82.00;;;;;;5003106;28;20460;-41
2021/10/16 02:58:29;;;;;;;10.93;7.37;;;7.80;82.10;;;;;;5005098;28;20468;-41
2021/10/16 03:00:56;;;;;;;8.93;6.83;;;7.70;82.00;;;;;;5007368;28;20448;-41
2021/10/16 03:03:22;;;;;;;12.03;6.63;;;7.70;82.00;;;;;;5005422;28;20500;-42
2021/10/16 03:05:49;;;;;;;8.17;7.20;;;7.70;81.80;;;;;;5004440;28;20984;-41
2021/10/16 03:08:16;;;;;;;7.83;6.93;;;7.70;81.70;;;;;;5007971;28;20494;-41
2021/10/16 03:10:43;;;;;;;8.07;7.20;;;7.60;81.30;;;;;;5002696;28;20452;-41
2021/10/16 03:13:10;;;;;;;5.80;5.17;;;7.60;81.30;;;;;;4987610;28;20543;-41
2021/10/16 03:15:36;;;;;;;7.17;5.70;;;7.60;80.80;;;;;;4988466;28;20823;-41
2021/10/16 03:18:03;;;;;;;6.97;5.93;;;7.60;80.40;;;;;;5006039;28;20475;-41
2021/10/16 03:20:30;;;;;;;9.53;6.80;;;7.50;80.20;;;;;;5006445;28;20464;-42
2021/10/16 03:22:56;;;;;;;8.53;5.70;;;7.50;80.10;;;;;;5002503;28;20460;-41
2021/10/16 03:25:23;;;;;;;6.90;5.67;;;7.40;80.20;;;;;;5003172;28;20502;-41
2021/10/16 03:27:50;;;;;;;8.07;6.27;;;7.40;80.10;;;;;;5004755;28;20519;-41
2021/10/16 03:30:17;;;;;;;7.10;5.70;;;7.40;80.00;;;;;;5005670;28;20836;-41
2021/10/16 03:32:44;;;;;;;6.60;5.97;;;7.30;80.30;;;;;;5005176;28;20456;-41
2021/10/16 03:35:10;;;;;;;5.87;5.17;;;7.20;80.50;;;;;;5004238;28;20472;-41
2021/10/16 03:37:37;;;;;;;8.90;5.70;;;7.20;80.60;;;;;;5002812;28;20445;-41
2021/10/16 03:40:05;;;;;;;6.13;5.53;;;7.20;80.70;;;;;;5004418;28;20483;-41
2021/10/16 03:42:31;;;;;;;10.03;6.20;;;7.10;80.60;;;;;;5004657;28;20463;-41
2021/10/16 03:44:58;;;;;;;7.60;5.47;;;7.10;80.60;;;;;;5006701;28;20479;-41
2021/10/16 03:47:25;;;;;;;6.20;5.23;;;7.10;80.80;;;;;;5005074;28;21061;-41
2021/10/16 03:49:51;;;;;;;9.10;5.80;;;7.00;80.90;;;;;;5006881;28;20498;-40
2021/10/16 03:52:18;;;;;;;14.00;10.30;;;7.00;81.10;;;;;;4988614;28;20468;-40
2021/10/16 03:54:45;;;;;;;14.63;9.90;;;7.00;81.10;;;;;;5005030;28;20856;-40
2021/10/16 03:57:12;;;;;;;10.93;8.53;;;7.00;81.30;;;;;;5003418;28;20457;-41
2021/10/16 03:59:43;;;;;;;10.80;6.80;;;7.00;81.10;;;;;;4988166;28;20472;-42
2021/10/16 04:02:10;;;;;;;7.47;6.50;;;7.00;81.50;;;;;;5007135;28;20468;-41
2021/10/16 04:04:38;;;;;;;10.60;7.47;;;7.00;81.70;;;;;;5003168;28;20538;-42
2021/10/16 04:07:04;;;;;;;12.60;7.40;;;7.00;81.70;;;;;;4988192;28;20472;-41
2021/10/16 04:09:31;;;;;;;9.37;8.00;;;7.00;81.80;;;;;;4989060;28;20487;-41
2021/10/16 04:11:58;;;;;;;10.23;8.80;;;6.90;81.90;;;;;;5005637;28;20559;-41
2021/10/16 04:14:25;;;;;;;13.23;9.50;;;6.90;81.90;;;;;;5003032;28;20471;-41
2021/10/16 04:16:52;;;;;;;14.03;8.20;;;6.90;82.00;;;;;;5004783;28;20979;-41
2021/10/16 04:19:19;;;;;;;7.87;7.13;;;6.90;81.90;;;;;;5002890;28;20470;-41
2021/10/16 04:21:45;;;;;;;6.73;5.97;;;6.90;82.00;;;;;;5003530;28;20482;-41
2021/10/16 04:24:12;;;;;;;10.33;6.80;;;6.90;81.90;;;;;;5001224;28;20832;-41
2021/10/16 04:26:39;;;;;;;7.93;6.20;;;6.90;82.00;;;;;;5006379;28;20460;-41
2021/10/16 04:29:06;;;;;;;6.63;5.73;;;6.90;82.00;;;;;;5004297;28;20491;-41
2021/10/16 04:31:33;;;;;;;9.23;7.50;;;6.90;82.10;;;;;;5003755;28;20452;-41
2021/10/16 04:34:02;;;;;;;7.00;6.30;;;6.90;82.10;;;;;;5003688;28;20464;-41
2021/10/16 04:36:30;;;;;;;10.23;7.03;;;6.90;82.10;;;;;;5003179;28;20468;-41
2021/10/16 04:38:57;;;;;;;11.20;7.63;;;6.90;82.30;;;;;;5003206;28;20526;-41
2021/10/16 04:41:25;;;;;;;15.90;9.20;;;6.90;82.60;;;;;;5007283;28;20474;-41
2021/10/16 04:43:51;;;;;;;12.60;8.30;;;7.00;82.50;;;;;;4990237;28;20475;-41
2021/10/16 04:46:22;;;;;;;12.10;8.73;;;7.00;82.40;;;;;;4991163;28;20464;-41
2021/10/16 04:48:49;;;;;;;15.20;8.93;;;6.90;82.50;;;;;;5008310;28;20499;-41
2021/10/16 04:51:16;;;;;;;12.93;8.83;;;6.90;82.60;;;;;;5005619;28;20464;-41
2021/10/16 04:53:43;;;;;;;15.50;9.00;;;6.90;82.70;;;;;;5008740;28;20815;-41
2021/10/16 04:56:10;;;;;;;15.47;9.67;;;6.90;82.90;;;;;;5008769;28;20456;-42
2021/10/16 04:58:36;;;;;;;14.27;8.87;;;6.90;83.00;;;;;;5006695;28;20468;-41
2021/10/16 05:01:03;;;;;;;13.03;8.47;;;6.90;83.00;;;;;;5005079;28;20971;-40
2021/10/16 05:03:30;;;;;;;11.23;8.87;;;6.90;83.10;;;;;;5008618;28;20495;-42
2021/10/16 05:05:57;;;;;;;11.60;8.67;;;6.90;83.10;;;;;;5006346;28;20460;-41
2021/10/16 05:08:23;;;;;;;16.37;9.20;;;6.90;83.10;;;;;;4985769;28;20492;-41
2021/10/16 05:10:51;;;;;;;12.80;8.30;;;6.90;83.20;;;;;;5005285;28;20989;-41
2021/10/16 05:13:18;;;;;;;13.03;8.77;;;6.90;83.20;;;;;;5007331;28;20460;-41
2021/10/16 05:15:45;;;;;;;13.87;8.93;;;6.80;83.30;;;;;;5006274;28;20464;-41
2021/10/16 05:18:12;;;;;;;15.17;8.43;;;6.80;83.30;;;;;;5008026;28;20466;-41
2021/10/16 05:20:39;;;;;;;14.13;8.70;;;6.80;83.30;;;;;;5006531;28;20456;-41
2021/10/16 05:23:06;;;;;;;20.20;11.30;;;6.80;83.50;;;;;;5003643;28;20961;-41
2021/10/16 05:25:32;;;;;;;18.70;9.30;;;6.80;83.30;;;;;;4990002;28;20457;-41
2021/10/16 05:27:59;;;;;;;16.10;9.60;;;6.80;83.60;;;;;;5008094;28;20476;-41
2021/10/16 05:30:26;;;;;;;15.27;8.47;;;6.80;83.60;;;;;;5007750;28;20460;-42
2021/10/16 05:32:53;;;;;;;15.27;9.83;;;6.80;83.70;;;;;;5006352;28;20488;-42
2021/10/16 05:35:20;;;;;;;16.57;9.23;;;6.80;83.90;;;;;;5007453;28;20875;-42
2021/10/16 05:37:47;;;;;;;13.87;9.20;;;6.80;83.90;;;;;;5005018;28;20468;-41
2021/10/16 05:40:14;;;;;;;13.97;9.20;;;6.80;83.90;;;;;;5005608;28;20928;-41
2021/10/16 05:42:41;;;;;;;14.13;9.27;;;6.80;84.10;;;;;;5006736;28;20461;-41
2021/10/16 05:45:08;;;;;;;13.03;8.87;;;6.80;84.10;;;;;;5005733;28;20460;-41
2021/10/16 05:47:36;;;;;;;13.00;8.80;;;6.80;84.20;;;;;;5007715;28;20475;-41
2021/10/16 05:50:08;;;;;;;15.77;9.73;;;6.90;84.30;;;;;;5004939;28;20674;-41
2021/10/16 05:52:36;;;;;;;11.70;9.23;;;6.90;84.50;;;;;;5006118;28;20452;-41
2021/10/16 05:55:06;;;;;;;17.27;9.67;;;7.00;84.50;;;;;;5006351;28;20499;-41
2021/10/16 05:57:33;;;;;;;11.33;9.40;;;7.00;84.50;;;;;;5005909;28;20818;-41
2021/10/16 06:00:00;;;;;;;13.33;10.30;;;7.00;84.60;;;;;;5003285;28;20470;-41
2021/10/16 06:02:27;;;;;;;14.30;9.27;;;7.00;84.60;;;;;;5003330;28;20860;-41
2021/10/16 06:04:53;;;;;;;13.80;9.53;;;7.00;84.60;;;;;;5004050;28;20497;-41
2021/10/16 06:07:20;;;;;;;12.93;9.60;;;7.00;84.80;;;;;;5004131;28;20463;-41
2021/10/16 06:09:47;;;;;;;11.93;9.00;;;7.00;85.00;;;;;;5006777;28;20518;-41
2021/10/16 06:12:14;;;;;;;12.93;9.27;;;7.00;85.10;;;;;;4989092;28;20464;-41
2021/10/16 06:14:41;;;;;;;11.57;8.67;;;7.00;85.00;;;;;;5004695;28;20567;-41
2021/10/16 06:17:08;;;;;;;12.10;8.50;;;6.90;85.10;;;;;;5004509;28;20542;-41
2021/10/16 06:19:35;;;;;;;12.40;9.03;;;6.90;85.20;;;;;;4999956;28;20512;-42
2021/10/16 06:22:02;;;;;;;13.10;8.70;;;6.90;85.30;;;;;;4988021;28;20478;-41
2021/10/16 06:24:29;;;;;;;10.10;8.20;;;7.00;85.30;;;;;;5005878;28;20551;-41
2021/10/16 06:26:55;;;;;;;11.67;8.93;;;7.10;85.10;;;;;;5002991;28;20977;-41
2021/10/16 06:29:22;;;;;;;9.10;7.40;;;7.10;85.00;;;;;;5002942;28;20787;-41
2021/10/16 06:31:49;;;;;;;10.70;8.53;;;7.00;84.90;;;;;;4989060;28;20464;-42
2021/10/16 06:34:16;;;;;;;10.80;7.90;;;7.00;85.00;;;;;;5007052;28;20466;-42
2021/10/16 06:36:42;;;;;;;13.20;8.10;;;7.00;85.10;;;;;;4989105;28;20467;-42
2021/10/16 06:39:09;;;;;;;13.57;8.90;;;7.00;85.10;;;;;;4998137;28;21467;-41
2021/10/16 06:41:36;;;;;;;9.03;7.77;;;7.10;85.30;;;;;;5003116;28;20840;-41
2021/10/16 06:44:03;;;;;;;9.17;8.10;;;7.10;85.30;;;;;;4973807;28;20475;-41
2021/10/16 06:46:29;;;;;;;11.07;8.20;;;7.10;85.10;;;;;;5003007;28;20469;-41
2021/10/16 06:48:56;;;;;;;10.90;7.43;;;7.10;85.10;;;;;;4986123;28;20496;-41
2021/10/16 06:51:23;;;;;;;9.43;7.97;;;7.10;85.10;;;;;;5003805;28;20461;-41
2021/10/16 06:53:49;;;;;;;10.50;9.13;;;7.10;84.90;;;;;;5007982;28;20456;-41
2021/10/16 06:56:16;;;;;;;12.93;7.80;;;7.10;85.10;;;;;;5001472;28;20461;-41
2021/10/16 06:58:43;;;;;;;8.73;7.80;;;7.10;85.10;;;;;;4997548;28;21058;-41
2021/10/16 07:01:09;;;;;;;11.07;8.17;;;7.10;85.00;;;;;;5006795;28;20464;-41
2021/10/16 07:03:36;;;;;;;11.57;8.40;;;7.10;85.20;;;;;;5003720;28;21025;-41
2021/10/16 07:06:03;;;;;;;10.33;8.07;;;7.10;85.20;;;;;;4989210;28;20486;-41
2021/10/16 07:08:30;;;;;;;10.43;8.00;;;7.20;85.10;;;;;;5005972;28;20961;-41
2021/10/16 07:10:58;;;;;;;10.00;8.27;;;7.20;85.10;;;;;;5006920;28;20453;-41
2021/10/16 07:13:25;;;;;;;12.33;9.03;;;7.20;85.20;;;;;;5003041;28;21452;-41
2021/10/16 07:15:52;;;;;;;12.07;9.10;;;7.20;85.20;;;;;;5002062;28;20637;-41
2021/10/16 07:18:19;;;;;;;10.00;8.27;;;7.20;85.30;;;;;;5005522;28;20996;-41
2021/10/16 07:20:46;;;;;;;11.53;8.57;;;7.20;85.40;;;;;;5006017;28;21000;-41
2021/10/16 07:23:33;;;;;;;10.63;8.83;;;7.30;85.40;;;;;;5005880;28;20812;-41
2021/10/16 07:26:00;;;;;;;17.13;9.80;;;7.30;85.50;;;;;;5002430;28;21011;-41
2021/10/16 07:28:27;;;;;;;12.40;8.97;;;7.40;85.30;;;;;;5001179;28;20461;-41
2021/10/16 07:30:54;;;;;;;15.47;9.70;;;7.40;85.40;;;;;;5002342;28;20518;-41
2021/10/16 07:33:21;;;;;;;10.63;8.07;;;7.40;85.60;;;;;;5005827;28;20482;-41
2021/10/16 07:35:47;;;;;;;11.17;9.47;;;7.50;85.40;;;;;;5006101;28;20483;-41
2021/10/16 07:38:15;;;;;;;11.83;9.30;;;7.70;85.30;;;;;;5002620;28;20469;-41
2021/10/16 07:40:41;;;;;;;13.70;10.00;;;7.70;85.20;;;;;;5002747;28;20838;-41
2021/10/16 07:43:08;;;;;;;15.40;9.33;;;7.80;85.10;;;;;;4986438;28;22116;-41
2021/10/16 07:45:35;;;;;;;15.90;11.70;;;7.80;85.40;;;;;;5001070;28;20475;-41
2021/10/16 07:48:03;;;;;;;13.73;9.00;;;7.90;85.20;;;;;;5004432;28;20473;-41
2021/10/16 07:50:30;;;;;;;12.77;9.30;;;7.90;85.20;;;;;;5001746;28;21043;-41
2021/10/16 07:52:57;;;;;;;11.73;8.97;;;7.90;85.50;;;;;;5003183;28;20500;-41
2021/10/16 07:55:23;;;;;;;15.80;11.40;;;8.00;85.40;;;;;;4992402;28;20535;-41
2021/10/16 07:57:50;;;;;;;14.27;9.20;;;8.00;85.70;;;;;;5004284;28;20464;-41
2021/10/16 08:00:17;;;;;;;18.77;12.27;;;8.10;85.80;;;;;;5004726;28;20464;-41
2021/10/16 08:02:44;;;;;;;11.57;8.80;;;8.20;85.90;;;;;;5004618;28;20460;-41
2021/10/16 08:05:14;;;;;;;14.00;10.10;;;8.20;85.50;;;;;;5000536;28;20544;-41
2021/10/16 08:07:42;;;;;;;13.17;10.40;;;8.20;85.80;;;;;;5003727;28;20593;-41
2021/10/16 08:10:10;;;;;;;14.60;10.20;;;8.30;85.80;;;;;;5004887;28;20856;-41
2021/10/16 08:12:38;;;;;;;12.97;10.27;;;8.40;85.70;;;;;;5003060;28;20460;-41
2021/10/16 08:15:07;;;;;;;14.33;9.83;;;8.50;85.60;;;;;;4984464;28;20543;-41
2021/10/16 08:17:34;;;;;;;13.33;10.13;;;8.50;85.50;;;;;;5007218;28;20462;-41
2021/10/16 08:20:01;;;;;;;10.43;7.90;;;8.60;85.70;;;;;;5008063;28;20468;-42
2021/10/16 08:22:31;;;;;;;10.07;7.00;;;8.60;85.90;;;;;;5003051;28;20460;-41
2021/10/16 08:24:58;;;;;;;8.43;6.97;;;8.60;86.00;;;;;;4988251;28;20559;-41
2021/10/16 08:27:24;;;;;;;8.23;7.23;;;8.70;85.80;;;;;;5006992;28;20966;-41
2021/10/16 08:29:51;;;;;;;9.87;7.70;;;8.80;85.70;;;;;;4991772;28;20908;-41
2021/10/16 08:32:19;;;;;;;10.57;8.27;;;8.90;85.50;;;;;;5008163;28;20900;-41
2021/10/16 08:34:46;;;;;;;11.30;7.90;;;9.00;85.30;;;;;;5007476;28;20467;-41
2021/10/16 08:37:13;;;;;;;8.70;7.03;;;9.10;85.10;;;;;;5008755;28;20761;-41
2021/10/16 08:39:39;;;;;;;8.23;7.23;;;9.10;84.60;;;;;;5006250;28;20470;-41
2021/10/16 08:42:06;;;;;;;9.30;6.77;;;9.20;84.60;;;;;;5005974;28;20456;-41
2021/10/16 08:44:35;;;;;;;12.60;7.67;;;9.30;84.20;;;;;;5008040;28;20465;-41
2021/10/16 08:47:02;;;;;;;11.57;6.80;;;9.20;84.10;;;;;;5007487;28;20456;-41
2021/10/16 08:49:32;;;;;;;12.17;7.60;;;9.30;83.80;;;;;;5007576;28;20602;-41
2021/10/16 08:51:59;;;;;;;7.60;6.90;;;9.30;83.50;;;;;;5007118;28;20464;-41
2021/10/16 08:54:26;;;;;;;9.23;6.87;;;9.30;83.60;;;;;;5009533;28;21062;-41
2021/10/16 08:56:52;;;;;;;9.97;7.50;;;9.30;83.60;;;;;;5005839;28;20460;-41
2021/10/16 08:59:19;;;;;;;9.83;6.40;;;9.40;83.40;;;;;;5007210;28;20467;-41
2021/10/16 09:02:00;;;;;;;10.37;7.27;;;9.40;83.60;;;;;;5004629;28;20452;-41
2021/10/16 09:04:28;;;;;;;8.17;7.33;;;9.50;83.70;;;;;;5006801;28;20488;-42
2021/10/16 09:06:56;;;;;;;8.43;6.70;;;9.60;83.50;;;;;;4992145;28;20464;-41
2021/10/16 09:09:27;;;;;;;15.77;7.50;;;9.70;83.40;;;;;;5008210;28;20488;-41
2021/10/16 09:11:54;;;;;;;13.37;6.57;;;9.70;83.60;;;;;;5007851;28;20452;-41
2021/10/16 09:14:29;;;;;;;10.57;6.90;;;9.70;83.70;;;;;;5003360;28;20468;-41
2021/10/16 09:17:01;;;;;;;12.17;7.17;;;9.80;83.60;;;;;;5008851;28;20464;-41
2021/10/16 09:19:31;;;;;;;9.50;7.83;;;9.80;83.60;;;;;;5006600;28;20833;-41
2021/10/16 09:22:01;;;;;;;8.43;6.60;;;9.90;83.50;;;;;;5007081;28;20460;-41
2021/10/16 09:24:38;;;;;;;12.50;7.37;;;9.90;83.00;;;;;;5005161;28;20466;-41
2021/10/16 09:27:09;;;;;;;8.63;7.27;;;10.00;82.80;;;;;;5004915;28;20468;-42
2021/10/16 09:29:38;;;;;;;10.27;7.87;;;10.10;82.60;;;;;;5006661;28;20484;-41
2021/10/16 09:32:11;;;;;;;12.53;7.67;;;10.20;82.50;;;;;;5004101;28;20467;-41
2021/10/16 09:34:41;;;;;;;10.97;6.73;;;10.30;82.40;;;;;;5002577;28;20528;-41
2021/10/16 09:37:13;;;;;;;10.07;7.00;;;10.40;81.70;;;;;;5005929;28;20468;-42
2021/10/16 09:39:51;;;;;;;11.30;7.07;;;10.60;81.50;;;;;;4989875;28;20457;-42
2021/10/16 09:42:30;;;;;;;15.10;7.93;;;10.70;81.30;;;;;;5002700;28;20835;-43
2021/10/16 09:45:06;;;;;;;11.03;8.13;;;10.80;81.10;;;;;;5005093;28;20483;-42
2021/10/16 09:47:34;;;;;;;10.07;7.77;;;10.90;80.90;;;;;;5005946;28;20460;-42
2021/10/16 09:50:09;;;;;;;12.90;7.80;;;10.90;80.70;;;;;;5001554;28;20858;-42
2021/10/16 09:52:48;;;;;;;12.20;8.03;;;10.90;80.80;;;;;;5001916;28;20468;-43
2021/10/16 09:55:17;;;;;;;7.63;6.90;;;11.00;80.20;;;;;;5001151;28;20467;-41
2021/10/16 09:57:53;;;;;;;10.23;7.77;;;11.00;80.20;;;;;;4999153;28;20456;-42
2021/10/16 10:00:25;;;;;;;10.60;8.30;;;11.20;79.90;;;;;;5001171;28;20559;-42
2021/10/16 10:02:57;;;;;;;14.93;7.77;;;11.30;79.80;;;;;;4997299;28;20468;-42
2021/10/16 10:05:38;;;;;;;6.60;5.50;;;11.40;79.40;;;;;;4979696;28;20460;-43
2021/10/16 10:08:07;;;;;;;12.53;5.30;;;11.60;78.50;;;;;;5000453;28;20490;-43
2021/10/16 10:10:34;;;;;;;8.90;5.97;;;11.80;77.70;;;;;;4987837;28;20515;-41
2021/10/16 10:13:04;;;;;;;8.53;5.63;;;12.00;77.30;;;;;;5005961;28;20818;-42
2021/10/16 10:15:33;;;;;;;13.13;6.77;;;12.10;77.10;;;;;;5002303;28;20464;-42
2021/10/16 10:20:54;;;;;;;9.03;5.63;;;12.40;76.70;;;;;;5007091;28;20474;-43
2021/10/16 10:23:27;;;;;;;13.00;6.60;;;12.60;76.00;;;;;;5006122;28;20468;-43
2021/10/16 10:26:23;;;;;;;5.93;5.33;;;12.70;75.50;;;;;;5001892;28;20477;-44
2021/10/16 10:28:54;;;;;;;11.33;6.10;;;12.80;74.70;;;;;;5002322;28;20460;-44
2021/10/16 10:31:45;;;;;;;11.40;5.47;;;12.90;74.00;;;;;;4986223;28;20526;-41
2021/10/16 10:34:18;;;;;;;8.23;5.53;;;13.00;73.30;;;;;;5004776;28;20455;-41
2021/10/16 10:37:13;;;;;;;11.23;5.70;;;13.10;73.20;;;;;;5006708;28;20961;-41
2021/10/16 10:39:49;;;;;;;7.40;4.63;;;13.10;72.10;;;;;;4997762;28;20464;-41
2021/10/16 10:42:15;;;;;;;11.20;6.57;;;13.20;71.30;;;;;;5006395;28;20470;-41
2021/10/16 10:44:45;;;;;;;9.57;6.23;;;13.20;71.00;;;;;;5005383;28;20467;-41
2021/10/16 10:47:28;;;;;;;9.17;6.23;;;13.30;71.50;;;;;;5004536;28;20467;-41
2021/10/16 10:49:57;;;;;;;11.53;6.20;;;13.30;70.60;;;;;;5003009;28;20484;-41
2021/10/16 10:52:27;;;;;;;9.00;4.60;;;13.30;70.60;;;;;;5004672;28;20552;-41
2021/10/16 10:55:14;;;;;;;9.63;5.97;;;13.30;70.30;;;;;;5004638;28;20980;-41
2021/10/16 10:57:45;;;;;;;10.40;4.83;;;13.30;69.80;;;;;;5006963;28;20456;-41
2021/10/16 11:00:13;;;;;;;6.17;4.57;;;13.20;69.70;;;;;;5003370;28;20464;-41
2021/10/16 11:02:41;;;;;;;7.50;4.90;;;13.20;69.60;;;;;;5002176;28;20464;-41
2021/10/16 11:08:15;;;;;;;7.47;4.83;;;13.20;69.60;;;;;;5003796;28;20997;-41
2021/10/16 11:10:43;;;;;;;7.53;3.77;;;13.20;70.30;;;;;;4982386;28;20488;-41
2021/10/16 11:13:20;;;;;;;8.07;4.10;;;13.20;69.70;;;;;;4999365;28;20755;-41
2021/10/16 11:16:03;;;;;;;12.40;5.40;;;13.20;69.80;;;;;;4999925;28;21278;-41
2021/10/16 11:18:31;;;;;;;6.53;4.27;;;13.10;70.00;;;;;;5004080;28;20451;-41
2021/10/16 11:21:10;;;;;;;5.40;4.30;;;13.20;70.30;;;;;;5002125;28;20490;-41
2021/10/16 11:23:39;;;;;;;7.50;4.00;;;13.10;70.40;;;;;;5003804;28;21040;-41
2021/10/16 11:26:11;;;;;;;11.17;5.70;;;13.10;70.30;;;;;;5000055;28;22248;-41
2021/10/16 11:28:39;;;;;;;10.97;5.43;;;13.10;70.10;;;;;;5000669;28;20460;-41
2021/10/16 11:31:08;;;;;;;7.37;4.90;;;13.10;69.70;;;;;;5001574;28;20485;-41
2021/10/16 11:33:38;;;;;;;7.33;3.53;;;13.10;69.60;;;;;;5003284;28;20596;-41
2021/10/16 11:36:06;;;;;;;6.80;4.10;;;13.10;69.60;;;;;;5000868;28;20487;-41
2021/10/16 11:38:36;;;;;;;5.40;3.97;;;13.20;70.20;;;;;;5002656;28;20575;-41
2021/10/16 11:41:06;;;;;;;8.83;4.10;;;13.30;70.30;;;;;;4985284;28;20551;-41
2021/10/16 11:43:40;;;;;;;7.70;5.00;;;13.20;70.30;;;;;;5007240;28;20467;-41
2021/10/16 11:46:16;;;;;;;8.77;3.90;;;13.20;69.70;;;;;;5005776;28;20460;-41
2021/10/16 11:48:44;;;;;;;8.50;4.30;;;13.20;69.30;;;;;;5003825;28;20464;-41
2021/10/16 11:51:11;;;;;;;7.53;4.20;;;13.20;69.30;;;;;;5007829;28;20488;-41
2021/10/16 11:53:40;;;;;;;6.93;5.17;;;13.30;69.20;;;;;;5004950;28;20739;-41
2021/10/16 11:56:08;;;;;;;12.70;5.00;;;13.30;69.00;;;;;;5008334;28;20452;-41
2021/10/16 11:58:35;;;;;;;8.10;4.50;;;13.30;68.50;;;;;;5008825;28;20448;-40
2021/10/16 12:01:07;;;;;;;6.07;4.37;;;13.40;68.40;;;;;;5007043;28;20456;-40
2021/10/16 12:03:43;;;;;;;55.47;8.63;;;13.40;68.80;;;;;;5006767;28;20529;-40
2021/10/16 12:06:11;;;;;;;13.17;4.77;;;13.40;68.90;;;;;;5010771;28;20991;-40
2021/10/16 12:08:48;;;;;;;28.47;8.10;;;13.50;68.80;;;;;;5009538;28;20463;-40
2021/10/16 12:11:23;;;;;;;26.60;6.17;;;13.40;68.70;;;;;;4993783;28;20494;-40
2021/10/16 12:13:57;;;;;;;12.93;4.63;;;13.40;68.10;;;;;;5009151;28;20482;-40
2021/10/16 12:16:26;;;;;;;6.87;3.97;;;13.40;67.40;;;;;;5007141;28;20458;-40
2021/10/16 12:18:57;;;;;;;6.50;3.27;;;13.50;66.70;;;;;;5008328;28;20832;-40
2021/10/16 12:21:37;;;;;;;7.30;4.70;;;13.50;66.30;;;;;;5005405;28;20471;-40
2021/10/16 12:24:12;;;;;;;74.90;12.03;;;13.50;66.90;;;;;;5007874;28;20961;-40
2021/10/16 12:26:41;;;;;;;62.10;13.10;;;13.50;67.40;;;;;;5007526;28;20455;-39
2021/10/16 12:29:10;;;;;;;32.93;8.43;;;13.50;67.50;;;;;;5010582;28;20464;-39
2021/10/16 12:31:43;;;;;;;37.90;7.80;;;13.40;67.50;;;;;;5008722;28;20487;-39
2021/10/16 12:34:28;;;;;;;13.23;4.10;;;13.50;67.30;;;;;;5009326;28;20500;-39
2021/10/16 12:37:03;;;;;;;149.67;25.17;;;13.50;68.30;;;;;;5003864;28;20539;-40
2021/10/16 12:39:33;;;;;;;94.67;15.23;;;13.50;68.10;;;;;;5008985;28;20805;-40
2021/10/16 12:42:10;;;;;;;175.47;23.87;;;13.40;67.40;;;;;;5007848;28;20487;-40
2021/10/16 12:44:39;;;;;;;11.13;3.37;;;13.50;67.40;;;;;;5007847;28;20470;-40
2021/10/16 12:47:16;;;;;;;8.07;3.37;;;13.50;66.70;;;;;;5005757;28;20949;-40
2021/10/16 12:49:48;;;;;;;110.07;17.17;;;13.60;66.20;;;;;;5007108;28;20462;-40
2021/10/16 12:52:25;;;;;;;69.53;12.77;;;13.60;66.90;;;;;;5006941;28;20457;-40
2021/10/16 12:54:53;;;;;;;10.00;3.70;;;13.60;67.20;;;;;;5007405;28;21797;-40
2021/10/16 12:57:23;;;;;;;15.63;3.63;;;13.70;66.50;;;;;;5006697;28;20581;-40
2021/10/16 12:59:50;;;;;;;49.70;9.20;;;13.70;65.80;;;;;;5009537;28;21313;-40
2021/10/16 13:02:18;;;;;;;156.93;24.17;;;13.70;65.60;;;;;;5007278;28;20919;-40